| time (UTC) | temp C | wind direction | speed KPH | gust KPH | rain 1hr cm | rain 24hr cm | rain mn cm | humidity % | barometer mb |
| 20260507060500 | 15 | 360 | 17.7 | 25.7 | 0.03 | 0.10 | 0.05 | 92 | 1008.8 |
| 20260507060003 | 15 | 338 | 17.7 | 24.1 | 0.03 | 0.10 | 0.05 | 91 | 1008.9 |
| 20260507055504 | 16 | 355 | 19.3 | 24.1 | 0.05 | 0.10 | 0.05 | 90 | 1008.9 |
| 20260507054959 | 16 | 325 | 19.3 | 29.0 | 0.03 | 0.08 | 0.03 | 90 | 1008.9 |
| 20260507054505 | 16 | 345 | 20.9 | 29.0 | 0.03 | 0.08 | 0.03 | 90 | 1008.9 |
| 20260507054000 | 16 | 334 | 22.5 | 29.0 | 0.03 | 0.08 | 0.03 | 90 | 1009.0 |
| 20260507053459 | 16 | 336 | 20.9 | 29.0 | 0.03 | 0.08 | 0.03 | 91 | 1009.1 |
| 20260507053005 | 16 | 336 | 16.1 | 27.4 | 0.03 | 0.08 | 0.03 | 91 | 1009.2 |
| 20260507052503 | 17 | 331 | 20.9 | 27.4 | 0.03 | 0.08 | 0.03 | 91 | 1009.1 |
| 20260507052000 | 17 | 335 | 20.9 | 25.7 | 0.03 | 0.08 | 0.03 | 92 | 1009.1 |
| 20260507051500 | 17 | 340 | 17.7 | 22.5 | 0.03 | 0.08 | 0.03 | 92 | 1009.0 |
| 20260507051000 | 17 | 334 | 11.3 | 17.7 | 0.03 | 0.08 | 0.03 | 92 | 1009.1 |
| 20260507050505 | 17 | 315 | 11.3 | 24.1 | 0.03 | 0.08 | 0.03 | 91 | 1009.1 |
| 20260507050002 | 17 | 315 | 9.7 | 24.1 | 0.00 | 0.05 | 0.00 | 91 | 1009.2 |
| 20260507045505 | 17 | 296 | 3.2 | 6.4 | 0.00 | 0.05 | 0.00 | 92 | 1009.1 |
| 20260507045004 | 17 | 241 | 4.8 | 6.4 | 0.00 | 0.05 | 0.00 | 92 | 1009.0 |
| 20260507044505 | 17 | 223 | 4.8 | 6.4 | 0.00 | 0.05 | 0.00 | 92 | 1009.1 |
| 20260507043505 | 17 | 171 | 3.2 | 6.4 | 0.00 | 0.05 | 0.00 | 92 | 1009.1 |
| 20260507042005 | 17 | 161 | 3.2 | 8.0 | 0.00 | 0.05 | 0.00 | 92 | 1008.9 |
| 20260507041001 | 17 | 135 | 3.2 | 8.0 | 0.00 | 0.05 | 0.00 | 93 | 1008.7 |
| 20260507040504 | 17 | 148 | 3.2 | 4.8 | 0.00 | 0.05 | 0.00 | 93 | 1009.0 |
| 20260507035505 | 17 | 160 | 3.2 | 4.8 | 0.00 | 0.05 | 0.05 | 93 | 1009.0 |
| 20260507035005 | 17 | 160 | 3.2 | 3.2 | 0.00 | 0.05 | 0.05 | 93 | 1009.0 |
| 20260507034505 | 17 | 160 | 3.2 | 3.2 | 0.00 | 0.05 | 0.05 | 93 | 1009.1 |
| 20260507034004 | 17 | 160 | 3.2 | 3.2 | 0.00 | 0.05 | 0.05 | 93 | 1009.1 |
| 20260507033504 | 17 | 160 | 0.0 | 0.0 | 0.00 | 0.05 | 0.05 | 92 | 1008.9 |
| 20260507033005 | 17 | 160 | 0.0 | 0.0 | 0.00 | 0.05 | 0.05 | 92 | 1008.8 |
| 20260507032505 | 17 | 160 | 0.0 | 0.0 | 0.00 | 0.05 | 0.05 | 92 | 1008.6 |
| 20260507032005 | 17 | 160 | 0.0 | 1.6 | 0.00 | 0.05 | 0.05 | 92 | 1008.6 |
| 20260507031505 | 17 | 160 | 0.0 | 3.2 | 0.00 | 0.05 | 0.05 | 91 | 1008.6 |
| 20260507031005 | 17 | 115 | 1.6 | 4.8 | 0.00 | 0.05 | 0.05 | 91 | 1008.4 |
| 20260507030505 | 17 | 114 | 1.6 | 4.8 | 0.00 | 0.05 | 0.05 | 92 | 1008.2 |
| 20260507030005 | 17 | 131 | 1.6 | 4.8 | 0.00 | 0.05 | 0.05 | 92 | 1008.0 |
| 20260507025504 | 17 | 152 | 0.0 | 0.0 | 0.00 | 0.05 | 0.05 | 92 | 1008.3 |
| 20260507024505 | 17 | 153 | 0.0 | 0.0 | 0.00 | 0.05 | 0.05 | 92 | 1008.6 |
| 20260507023504 | 17 | 153 | 1.6 | 4.8 | 0.00 | 0.05 | 0.05 | 93 | 1008.8 |
| 20260507023005 | 17 | 133 | 3.2 | 4.8 | 0.00 | 0.05 | 0.05 | 93 | 1008.9 |
| 20260507022505 | 16 | 177 | 3.2 | 4.8 | 0.00 | 0.05 | 0.05 | 93 | 1009.0 |
| 20260507022004 | 16 | 177 | 3.2 | 4.8 | 0.00 | 0.05 | 0.05 | 92 | 1009.0 |
| 20260507021505 | 16 | 207 | 1.6 | 3.2 | 0.00 | 0.05 | 0.05 | 92 | 1009.1 |
| 20260507020005 | 17 | 207 | 0.0 | 1.6 | 0.00 | 0.05 | 0.05 | 91 | 1008.8 |
| 20260507015505 | 17 | 207 | 0.0 | 1.6 | 0.00 | 0.05 | 0.05 | 91 | 1008.8 |
| 20260507015005 | 17 | 207 | 1.6 | 1.6 | 0.00 | 0.05 | 0.05 | 91 | 1009.1 |
| 20260507014505 | 17 | 207 | 0.0 | 1.6 | 0.00 | 0.05 | 0.05 | 90 | 1009.1 |
| 20260507014005 | 17 | 207 | 0.0 | 3.2 | 0.00 | 0.05 | 0.05 | 90 | 1008.9 |
| 20260507013505 | 17 | 207 | 0.0 | 3.2 | 0.00 | 0.05 | 0.05 | 90 | 1009.0 |
| 20260507013006 | 17 | 210 | 0.0 | 4.8 | 0.00 | 0.05 | 0.05 | 90 | 1008.9 |
| 20260507012505 | 17 | 210 | 0.0 | 6.4 | 0.00 | 0.05 | 0.05 | 89 | 1009.2 |
| 20260507011505 | 17 | 207 | 4.8 | 6.4 | 0.00 | 0.05 | 0.05 | 90 | 1009.1 |
| 20260507011005 | 17 | 193 | 4.8 | 9.7 | 0.00 | 0.05 | 0.05 | 89 | 1008.9 |
| 20260507010505 | 17 | 180 | 6.4 | 9.7 | 0.00 | 0.05 | 0.05 | 89 | 1008.7 |
| 20260507010006 | 18 | 181 | 8.0 | 9.7 | 0.00 | 0.05 | 0.05 | 88 | 1008.7 |
| 20260507005505 | 18 | 185 | 8.0 | 9.7 | 0.00 | 0.05 | 0.05 | 88 | 1008.8 |
| 20260507005005 | 18 | 205 | 6.4 | 9.7 | 0.00 | 0.05 | 0.05 | 87 | 1008.6 |
| 20260507004504 | 18 | 197 | 6.4 | 11.3 | 0.00 | 0.05 | 0.05 | 88 | 1008.7 |
| 20260507003505 | 18 | 195 | 9.7 | 12.9 | 0.00 | 0.05 | 0.05 | 87 | 1008.7 |
| 20260507003005 | 18 | 192 | 9.7 | 12.9 | 0.00 | 0.05 | 0.05 | 86 | 1008.8 |
| 20260507001505 | 18 | 198 | 11.3 | 16.1 | 0.00 | 0.05 | 0.05 | 85 | 1008.3 |
| 20260507000505 | 19 | 196 | 11.3 | 16.1 | 0.00 | 0.05 | 0.05 | 85 | 1008.3 |
| 20260507000005 | 19 | 201 | 12.9 | 17.7 | 0.00 | 0.05 | 0.05 | 85 | 1008.3 |
| 20260506235505 | 19 | 202 | 14.5 | 17.7 | 0.00 | 0.05 | 0.05 | 84 | 1008.2 |
| 20260506235005 | 19 | 184 | 12.9 | 17.7 | 0.00 | 0.05 | 0.05 | 84 | 1008.3 |
| 20260506234505 | 19 | 192 | 12.9 | 16.1 | 0.00 | 0.05 | 0.05 | 84 | 1008.3 |
| 20260506234005 | 19 | 201 | 14.5 | 16.1 | 0.00 | 0.05 | 0.05 | 84 | 1008.2 |
| 20260506233505 | 19 | 206 | 12.9 | 19.3 | 0.00 | 0.05 | 0.05 | 84 | 1008.2 |
| 20260506233006 | 19 | 202 | 12.9 | 19.3 | 0.00 | 0.05 | 0.05 | 84 | 1008.2 |
| 20260506232505 | 19 | 198 | 12.9 | 19.3 | 0.00 | 0.05 | 0.05 | 84 | 1008.1 |
| 20260506232004 | 19 | 203 | 12.9 | 16.1 | 0.00 | 0.05 | 0.05 | 83 | 1008.1 |
| 20260506231505 | 20 | 192 | 12.9 | 17.7 | 0.00 | 0.05 | 0.05 | 83 | 1008.0 |
| 20260506231004 | 20 | 195 | 12.9 | 17.7 | 0.00 | 0.05 | 0.05 | 83 | 1008.1 |
| 20260506230505 | 20 | 207 | 12.9 | 19.3 | 0.00 | 0.05 | 0.05 | 83 | 1008.1 |
| 20260506230005 | 20 | 205 | 14.5 | 19.3 | 0.00 | 0.05 | 0.05 | 83 | 1007.9 |
| 20260506225505 | 20 | 190 | 12.9 | 19.3 | 0.00 | 0.05 | 0.05 | 82 | 1007.9 |
| 20260506224505 | 20 | 206 | 14.5 | 20.9 | 0.00 | 0.05 | 0.05 | 82 | 1008.1 |
| 20260506224005 | 20 | 199 | 14.5 | 20.9 | 0.00 | 0.05 | 0.05 | 81 | 1008.2 |
| 20260506222505 | 20 | 205 | 19.3 | 30.6 | 0.00 | 0.05 | 0.05 | 81 | 1008.2 |
| 20260506222006 | 20 | 191 | 19.3 | 29.0 | 0.00 | 0.05 | 0.05 | 81 | 1008.1 |
| 20260506221505 | 20 | 206 | 22.5 | 29.0 | 0.00 | 0.05 | 0.05 | 81 | 1008.1 |
| 20260506221005 | 20 | 187 | 19.3 | 33.8 | 0.00 | 0.05 | 0.05 | 81 | 1008.2 |
| 20260506220005 | 20 | 213 | 247.8 | 1054.1 | 20.45 | 0.00 | 0.05 | 81 | |
| 20260506215504 | 20 | 200 | 19.3 | 27.4 | 0.00 | 0.05 | 0.05 | 81 | 1008.3 |
| 20260506215006 | 20 | 207 | 20.9 | 29.0 | 0.00 | 0.05 | 0.05 | 81 | 1008.2 |
| 20260506214505 | 20 | 191 | 20.9 | 29.0 | 0.00 | 0.05 | 0.05 | 82 | 1008.2 |
| 20260506213504 | 20 | 188 | 20.9 | 29.0 | 0.00 | 0.05 | 0.05 | 82 | 1008.1 |
| 20260506213005 | 20 | 204 | 22.5 | 32.2 | 0.00 | 0.05 | 0.05 | 82 | 1008.0 |
| 20260506211505 | 20 | 186 | 22.5 | 30.6 | 0.00 | 0.05 | 0.05 | 82 | 1008.0 |
| 20260506211003 | 20 | 209 | 24.1 | 30.6 | 0.00 | 0.05 | 0.05 | 81 | 1008.0 |
| 20260506210505 | 20 | 191 | 20.9 | 27.4 | 0.00 | 0.05 | 0.05 | 82 | 1008.0 |
| 20260506210005 | 20 | 192 | 24.1 | 33.8 | 0.00 | 0.05 | 0.05 | 82 | 1007.9 |
| 20260506205505 | 20 | 187 | 22.5 | 33.8 | 0.00 | 0.05 | 0.05 | 81 | 1007.9 |
| 20260506204004 | 19 | 183 | 22.5 | 27.4 | 0.00 | 0.05 | 0.05 | 82 | 1008.0 |
| 20260506203504 | 19 | 199 | 20.9 | 25.7 | 0.00 | 0.05 | 0.05 | 82 | 1008.0 |
| 20260506203004 | 19 | 180 | 20.9 | 29.0 | 0.00 | 0.05 | 0.05 | 83 | 1008.0 |
| 20260506202504 | 19 | 193 | 22.5 | 35.4 | 0.00 | 0.05 | 0.05 | 82 | 1008.4 |
| 20260506201504 | 19 | 192 | 25.7 | 35.4 | 0.00 | 0.05 | 0.05 | 82 | 1008.2 |
| 20260506201004 | 19 | 194 | 27.4 | 35.4 | 0.00 | 0.05 | 0.05 | 82 | 1008.1 |
| 20260506200504 | 19 | 191 | 25.7 | 37.0 | 0.00 | 0.05 | 0.05 | 82 | 1008.0 |
| 20260506200005 | 19 | 194 | 29.0 | 37.0 | 0.00 | 0.05 | 0.05 | 82 | 1008.1 |
| 20260506195500 | 19 | 190 | 30.6 | 35.4 | 0.00 | 0.05 | 0.05 | 82 | 1008.3 |
| 20260506194503 | 19 | 189 | 27.4 | 38.6 | 0.00 | 0.05 | 0.05 | 82 | 1008.6 |
| 20260506194002 | 19 | 198 | 25.7 | 38.6 | 0.00 | 0.05 | 0.05 | 81 | 1008.6 |
| 20260506193505 | 20 | 180 | 30.6 | 37.0 | 0.00 | 0.05 | 0.05 | 81 | 1008.3 |
| 20260506193004 | 19 | 184 | 27.4 | 38.6 | 0.00 | 0.05 | 0.05 | 81 | 1008.9 |
| 20260506192002 | 19 | 186 | 25.7 | 32.2 | 0.00 | 0.05 | 0.05 | 82 | 1009.0 |
| 20260506191502 | 19 | 190 | 19.3 | 35.4 | 0.00 | 0.05 | 0.05 | 82 | 1009.0 |
| 20260506191004 | 19 | 200 | 24.1 | 35.4 | 0.00 | 0.05 | 0.05 | 81 | 1009.2 |
| 20260506190503 | 19 | 196 | 29.0 | 35.4 | 0.00 | 0.05 | 0.05 | 80 | 1009.1 |
| 20260506190005 | 19 | 194 | 25.7 | 41.8 | 0.00 | 0.05 | 0.05 | 80 | 1008.7 |
| 20260506185505 | 19 | 174 | 29.0 | 46.7 | 0.00 | 0.05 | 0.05 | 80 | 1008.6 |
| 20260506185004 | 19 | 195 | 30.6 | 38.6 | 0.00 | 0.05 | 0.05 | 81 | 1008.9 |
| 20260506184504 | 19 | 184 | 27.4 | 35.4 | 0.00 | 0.05 | 0.05 | 81 | 1009.2 |
| 20260506183500 | 19 | 193 | 24.1 | 30.6 | 0.00 | 0.05 | 0.05 | 80 | 1009.5 |
| 20260506183005 | 19 | 192 | 22.5 | 30.6 | 0.00 | 0.05 | 0.05 | 81 | 1009.6 |
| 20260506182500 | 19 | 196 | 24.1 | 35.4 | 0.00 | 0.05 | 0.05 | 81 | 1009.7 |
| 20260506182004 | 19 | 192 | 25.7 | 38.6 | 0.00 | 0.05 | 0.05 | 81 | 1009.5 |
| 20260506181000 | 19 | 173 | 32.2 | 41.8 | 0.00 | 0.05 | 0.05 | 81 | 1009.6 |
| 20260506180502 | 18 | 180 | 32.2 | 48.3 | 0.00 | 0.05 | 0.05 | 82 | 1009.5 |
| 20260506180006 | 18 | 183 | 30.6 | 40.2 | 0.00 | 0.05 | 0.05 | 82 | 1009.6 |
| 20260506174505 | 18 | 172 | 35.4 | 43.5 | 0.00 | 0.05 | 0.05 | 82 | 1009.8 |
| 20260506174005 | 18 | 173 | 32.2 | 40.2 | 0.00 | 0.05 | 0.05 | 82 | 1009.8 |
| 20260506173504 | 18 | 179 | 32.2 | 40.2 | 0.00 | 0.05 | 0.05 | 83 | 1009.8 |
| 20260506173005 | 18 | 179 | 33.8 | 41.8 | 0.00 | 0.05 | 0.05 | 83 | 1009.9 |
| 20260506172505 | 18 | 180 | 32.2 | 41.8 | 0.00 | 0.05 | 0.05 | 84 | 1009.9 |
| 20260506172004 | 18 | 179 | 32.2 | 43.5 | 0.00 | 0.05 | 0.05 | 85 | 1009.6 |
| 20260506171505 | 18 | 169 | 35.4 | 43.5 | 0.00 | 0.05 | 0.05 | 85 | 1009.8 |
| 20260506170505 | 17 | 175 | 32.2 | 41.8 | 0.03 | 0.05 | 0.05 | 87 | 1009.9 |
| 20260506165500 | 17 | 184 | 30.6 | 40.2 | 0.05 | 0.05 | 0.05 | 86 | 1010.1 |
| 20260506165003 | 17 | 165 | 32.2 | 40.2 | 0.05 | 0.05 | 0.05 | 86 | 1010.0 |
| 20260506164505 | 17 | 172 | 29.0 | 40.2 | 0.05 | 0.05 | 0.05 | 86 | 1009.9 |
| 20260506164004 | 17 | 177 | 33.8 | 38.6 | 0.05 | 0.05 | 0.05 | 86 | 1010.1 |
| 20260506163000 | 17 | 182 | 30.6 | 45.1 | 0.05 | 0.05 | 0.05 | 86 | 1010.2 |
| 20260506162500 | 17 | 180 | 38.6 | 45.1 | 0.05 | 0.05 | 0.05 | 86 | 1010.2 |
| 20260506162002 | 17 | 168 | 35.4 | 45.1 | 0.05 | 0.05 | 0.05 | 85 | 1010.2 |
| 20260506161504 | 17 | 184 | 33.8 | 45.1 | 0.05 | 0.05 | 0.05 | 85 | 1010.3 |
| 20260506161005 | 17 | 183 | 37.0 | 48.3 | 0.03 | 0.03 | 0.03 | 84 | 1010.2 |
| 20260506160504 | 17 | 178 | 38.6 | 48.3 | 0.03 | 0.03 | 0.03 | 83 | 1010.3 |
| 20260506160004 | 17 | 186 | 33.8 | 43.5 | 0.00 | 0.00 | 0.00 | 82 | 1010.5 |
| 20260506155000 | 18 | 188 | 32.2 | 43.5 | 0.00 | 0.00 | 0.00 | 81 | 1010.9 |
| 20260506153500 | 18 | 177 | 25.7 | 32.2 | 0.00 | 0.00 | 0.00 | 83 | 1011.0 |
| 20260506153000 | 17 | 176 | 24.1 | 30.6 | 0.00 | 0.00 | 0.00 | 82 | 1011.0 |
| 20260506152500 | 17 | 167 | 22.5 | 25.7 | 0.00 | 0.00 | 0.00 | 83 | 1011.0 |
| 20260506152000 | 17 | 173 | 24.1 | 25.7 | 0.00 | 0.00 | 0.00 | 84 | 1011.1 |
| 20260506151504 | 17 | 181 | 19.3 | 24.1 | 0.00 | 0.00 | 0.00 | 84 | 1011.1 |
| 20260506151002 | 17 | 184 | 20.9 | 25.7 | 0.00 | 0.00 | 0.00 | 83 | 1011.1 |
| 20260506150500 | 17 | 183 | 20.9 | 25.7 | 0.00 | 0.00 | 0.00 | 82 | 1011.3 |
| 20260506145504 | 17 | 188 | 19.3 | 27.4 | 0.00 | 0.00 | 0.00 | 83 | 1011.1 |
| 20260506145003 | 18 | 188 | 19.3 | 29.0 | 0.00 | 0.00 | 0.00 | 82 | 1011.3 |
| 20260506144500 | 18 | 190 | 22.5 | 30.6 | 0.00 | 0.00 | 0.00 | 80 | 1011.3 |
| 20260506144000 | 18 | 195 | 22.5 | 30.6 | 0.00 | 0.00 | 0.00 | 78 | 1011.2 |
| 20260506143000 | 18 | 181 | 25.7 | 32.2 | 0.00 | 0.00 | 0.00 | 77 | 1011.0 |
| 20260506142500 | 18 | 177 | 22.5 | 30.6 | 0.00 | 0.00 | 0.00 | 75 | 1011.0 |
| 20260506141505 | 18 | 177 | 25.7 | 33.8 | 0.00 | 0.00 | 0.00 | 74 | 1011.0 |
| 20260506141000 | 18 | 182 | 27.4 | 35.4 | 0.00 | 0.00 | 0.00 | 74 | 1011.1 |
| 20260506140500 | 18 | 184 | 30.6 | 35.4 | 0.00 | 0.00 | 0.00 | 74 | 1011.1 |
| 20260506140005 | 18 | 185 | 29.0 | 33.8 | 0.00 | 0.00 | 0.00 | 74 | 1011.2 |
| 20260506135500 | 18 | 175 | 27.4 | 38.6 | 0.00 | 0.00 | 0.00 | 73 | 1011.1 |
| 20260506135005 | 18 | 184 | 29.0 | 38.6 | 0.00 | 0.00 | 0.00 | 73 | 1011.1 |
| 20260506134502 | 19 | 176 | 30.6 | 41.8 | 0.00 | 0.00 | 0.00 | 73 | 1011.1 |
| 20260506134004 | 19 | 171 | 29.0 | 40.2 | 0.00 | 0.00 | 0.00 | 72 | 1011.0 |
| 20260506133500 | 19 | 170 | 30.6 | 43.5 | 0.00 | 0.00 | 0.00 | 72 | 1011.1 |
| 20260506132959 | 19 | 195 | 38.6 | 43.5 | 0.00 | 0.00 | 0.00 | 72 | 1011.2 |
| 20260506132005 | 19 | 167 | 32.2 | 41.8 | 0.00 | 0.00 | 0.00 | 71 | 1011.0 |
| 20260506131500 | 19 | 176 | 33.8 | 38.6 | 0.00 | 0.00 | 0.00 | 72 | 1011.0 |
| 20260506131005 | 19 | 177 | 32.2 | 46.7 | 0.00 | 0.00 | 0.00 | 72 | 1011.1 |
| 20260506130500 | 19 | 177 | 35.4 | 46.7 | 0.00 | 0.00 | 0.00 | 72 | 1011.1 |
| 20260506130006 | 18 | 171 | 30.6 | 48.3 | 0.00 | 0.00 | 0.00 | 73 | 1011.0 |
| 20260506125500 | 18 | 178 | 35.4 | 48.3 | 0.00 | 0.00 | 0.00 | 72 | 1010.9 |
| 20260506124504 | 18 | 174 | 30.6 | 37.0 | 0.00 | 0.00 | 0.00 | 72 | 1010.9 |
| 20260506124000 | 19 | 182 | 30.6 | 40.2 | 0.00 | 0.00 | 0.00 | 72 | 1010.9 |
| 20260506123500 | 19 | 171 | 33.8 | 41.8 | 0.00 | 0.00 | 0.00 | 72 | 1011.1 |
| 20260506122500 | 18 | 174 | 25.7 | 37.0 | 0.00 | 0.00 | 0.00 | 72 | 1011.3 |
| 20260506122000 | 18 | 178 | 29.0 | 45.1 | 0.00 | 0.00 | 0.00 | 72 | 1011.4 |
| 20260506121500 | 18 | 175 | 38.6 | 45.1 | 0.00 | 0.00 | 0.00 | 72 | 1011.5 |
| 20260506120959 | 18 | 167 | 30.6 | 43.5 | 0.00 | 0.00 | 0.00 | 72 | 1011.4 |
| 20260506120459 | 18 | 170 | 37.0 | 48.3 | 0.00 | 0.00 | 0.00 | 71 | 1011.6 |
| 20260506120005 | 18 | 186 | 32.2 | 40.2 | 0.00 | 0.00 | 0.00 | 72 | 1011.7 |
| 20260506115500 | 18 | 192 | 35.4 | 43.5 | 0.00 | 0.00 | 0.00 | 72 | 1011.4 |
| 20260506114459 | 18 | 182 | 30.6 | 40.2 | 0.00 | 0.00 | 0.00 | 73 | 1011.2 |
| 20260506113500 | 18 | 176 | 35.4 | 43.5 | 0.00 | 0.00 | 0.00 | 72 | 1011.1 |
| 20260506112959 | 18 | 181 | 30.6 | 41.8 | 0.00 | 0.00 | 0.00 | 74 | 1011.1 |
| 20260506112500 | 18 | 171 | 37.0 | 43.5 | 0.00 | 0.00 | 0.00 | 74 | 1011.0 |
| 20260506111959 | 17 | 162 | 33.8 | 45.1 | 0.00 | 0.00 | 0.00 | 74 | 1011.0 |
| 20260506111500 | 17 | 175 | 37.0 | 43.5 | 0.00 | 0.00 | 0.00 | 74 | 1011.0 |
| 20260506111000 | 17 | 181 | 33.8 | 45.1 | 0.00 | 0.00 | 0.00 | 74 | 1011.0 |
| 20260506110504 | 17 | 179 | 35.4 | 46.7 | 0.00 | 0.00 | 0.00 | 74 | 1010.8 |
| 20260506105500 | 17 | 181 | 35.4 | 45.1 | 0.00 | 0.00 | 0.00 | 74 | 1010.7 |
| 20260506105000 | 17 | 183 | 35.4 | 43.5 | 0.00 | 0.00 | 0.00 | 75 | 1010.8 |
| 20260506104500 | 17 | 173 | 33.8 | 45.1 | 0.00 | 0.00 | 0.00 | 75 | 1010.9 |
| 20260506104002 | 17 | 180 | 33.8 | 45.1 | 0.00 | 0.00 | 0.00 | 75 | 1010.7 |
| 20260506103500 | 17 | 178 | 35.4 | 46.7 | 0.00 | 0.00 | 0.00 | 75 | 1010.6 |
| 20260506103000 | 17 | 174 | 38.6 | 43.5 | 0.00 | 0.00 | 0.00 | 75 | 1010.6 |
| 20260506102459 | 17 | 173 | 37.0 | 43.5 | 0.00 | 0.00 | 0.00 | 75 | 1010.5 |
| 20260506102000 | 17 | 183 | 35.4 | 43.5 | 0.00 | 0.00 | 0.00 | 75 | 1010.6 |
| 20260506100006 | 17 | 180 | 33.8 | 45.1 | 0.00 | 0.00 | 0.00 | 76 | 1010.9 |
| 20260506095505 | 17 | 186 | 35.4 | 48.3 | 0.00 | 0.00 | 0.00 | 77 | 1010.9 |
| 20260506095000 | 17 | 185 | 32.2 | 40.2 | 0.00 | 0.00 | 0.00 | 77 | 1010.9 |
| 20260506094500 | 17 | 190 | 32.2 | 40.2 | 0.00 | 0.00 | 0.00 | 78 | 1011.0 |
| 20260506094000 | 17 | 183 | 32.2 | 40.2 | 0.00 | 0.00 | 0.00 | 77 | 1010.8 |
| 20260506093500 | 17 | 182 | 30.6 | 45.1 | 0.00 | 0.00 | 0.00 | 77 | 1010.8 |
| 20260506093006 | 17 | 186 | 33.8 | 45.1 | 0.00 | 0.00 | 0.00 | 77 | 1010.8 |
| 20260506092500 | 17 | 182 | 33.8 | 45.1 | 0.00 | 0.00 | 0.00 | 77 | 1010.7 |
| 20260506092004 | 17 | 191 | 32.2 | 46.7 | 0.00 | 0.00 | 0.00 | 77 | 1010.7 |
| 20260506091505 | 17 | 182 | 32.2 | 48.3 | 0.00 | 0.00 | 0.00 | 77 | 1010.7 |
| 20260506091005 | 17 | 173 | 37.0 | 48.3 | 0.00 | 0.00 | 0.00 | 77 | 1010.7 |
| 20260506090504 | 17 | 175 | 38.6 | 45.1 | 0.00 | 0.00 | 0.00 | 77 | 1010.6 |
| 20260506090005 | 17 | 184 | 38.6 | 46.7 | 0.00 | 0.00 | 0.00 | 77 | 1010.7 |
| 20260506085504 | 17 | 174 | 37.0 | 46.7 | 0.00 | 0.00 | 0.00 | 77 | 1010.7 |
| 20260506085000 | 17 | 180 | 37.0 | 49.9 | 0.00 | 0.00 | 0.00 | 77 | 1010.7 |
| 20260506084505 | 17 | 179 | 37.0 | 48.3 | 0.00 | 0.00 | 0.00 | 77 | 1010.9 |
| 20260506084003 | 17 | 183 | 35.4 | 45.1 | 0.00 | 0.00 | 0.00 | 77 | 1010.9 |
| 20260506083501 | 17 | 183 | 38.6 | 45.1 | 0.00 | 0.00 | 0.00 | 77 | 1010.7 |
| 20260506082959 | 17 | 173 | 37.0 | 43.5 | 0.00 | 0.00 | 0.00 | 77 | 1010.7 |
| 20260506082504 | 18 | 171 | 38.6 | 46.7 | 0.00 | 0.00 | 0.00 | 77 | 1010.8 |
| 20260506082003 | 18 | 174 | 40.2 | 43.5 | 0.00 | 0.00 | 0.00 | 77 | 1010.7 |
| 20260506081000 | 18 | 173 | 37.0 | 48.3 | 0.00 | 0.00 | 0.00 | 77 | 1010.7 |
| 20260506080503 | 18 | 180 | 38.6 | 46.7 | 0.00 | 0.00 | 0.00 | 77 | 1010.9 |
| 20260506072958 | 18 | 178 | 33.8 | 41.8 | 0.00 | 0.00 | 0.00 | 77 | 1011.2 |
| 20260506072459 | 18 | 171 | 35.4 | 40.2 | 0.00 | 0.00 | 0.00 | 77 | 1011.2 |
| 20260506071959 | 18 | 174 | 35.4 | 49.9 | 0.00 | 0.00 | 0.00 | 77 | 1011.3 |
| 20260506070958 | 18 | 168 | 32.2 | 43.5 | 0.00 | 0.00 | 0.00 | 76 | 1011.2 |
| 20260506070459 | 18 | 169 | 37.0 | 46.7 | 0.00 | 0.00 | 0.00 | 76 | 1011.2 |
| 20260506062459 | 18 | 180 | 33.8 | 45.1 | 0.00 | 0.00 | 0.00 | 75 | 1011.4 |
| 20260506061959 | 18 | 184 | 35.4 | 45.1 | 0.00 | 0.00 | 0.00 | 76 | 1011.3 |
| 20260506061459 | 18 | 172 | 37.0 | 41.8 | 0.00 | 0.00 | 0.00 | 75 | 1011.3 |
| 20260506060958 | 18 | 176 | 35.4 | 45.1 | 0.00 | 0.00 | 0.00 | 75 | 1011.2 |